Time;durP1;ratioP1;P1;durP2;ratioP2;P2;SDS_P1;SDS_P2;PMS_P1;PMS_P2;Temp;Humidity;BMP_temperature;BMP_pressure;BME280_temperature;BME280_humidity;BME280_pressure;Samples;Min_cycle;Max_cycle;Signal;HPM_P1;HPM_P2
2022/07/28 00:00:27;;;;;;;16.38;8.60;;;16.20;99.90;;;;;;4823824;29;20122;-56
2022/07/28 00:02:52;;;;;;;13.93;7.55;;;16.10;99.90;;;;;;4823609;29;20050;-57
2022/07/28 00:05:18;;;;;;;15.57;10.68;;;16.10;99.90;;;;;;4823739;29;20037;-58
2022/07/28 00:07:44;;;;;;;16.85;11.30;;;16.10;99.90;;;;;;4822392;29;20119;-52
2022/07/28 00:10:11;;;;;;;13.70;8.75;;;16.10;99.90;;;;;;4836130;29;20050;-55
2022/07/28 00:12:37;;;;;;;18.58;8.68;;;16.10;99.90;;;;;;4841797;29;20038;-54
2022/07/28 00:15:04;;;;;;;14.07;8.25;;;16.10;99.90;;;;;;4840349;29;20102;-55
2022/07/28 00:17:29;;;;;;;10.38;8.38;;;16.00;99.90;;;;;;4841967;29;20551;-59
2022/07/28 00:19:55;;;;;;;10.27;8.05;;;16.10;99.90;;;;;;4832810;29;20058;-53
2022/07/28 00:22:21;;;;;;;8.00;6.72;;;16.00;99.90;;;;;;4824494;29;20058;-54
2022/07/28 00:24:46;;;;;;;10.20;7.32;;;16.00;99.90;;;;;;4824231;29;20491;-58
2022/07/28 00:27:13;;;;;;;11.00;8.50;;;16.00;99.90;;;;;;4830852;29;20030;-56
2022/07/28 00:29:39;;;;;;;8.88;7.55;;;16.00;99.90;;;;;;4839718;29;20030;-59
2022/07/28 00:32:05;;;;;;;9.95;7.82;;;16.10;99.90;;;;;;4839914;29;20041;-56
2022/07/28 00:34:31;;;;;;;9.40;7.05;;;16.10;99.90;;;;;;4841268;29;20063;-56
2022/07/28 00:36:56;;;;;;;15.15;7.47;;;16.00;99.90;;;;;;4830145;29;20038;-57
2022/07/28 00:39:22;;;;;;;11.45;6.57;;;16.00;99.90;;;;;;4823335;29;20111;-59
2022/07/28 00:41:47;;;;;;;10.68;7.53;;;16.00;99.90;;;;;;4832882;29;20040;-58
2022/07/28 00:44:13;;;;;;;8.77;6.97;;;16.00;99.90;;;;;;4841571;29;20038;-56
2022/07/28 00:46:39;;;;;;;12.90;7.22;;;16.00;99.90;;;;;;4839634;29;20060;-58
2022/07/28 00:49:05;;;;;;;11.63;7.55;;;16.00;99.90;;;;;;4823349;29;20045;-58
2022/07/28 00:51:31;;;;;;;9.25;7.13;;;16.00;99.90;;;;;;4823763;29;20554;-56
2022/07/28 00:53:57;;;;;;;11.15;8.30;;;15.90;99.90;;;;;;4822818;29;20034;-54
2022/07/28 00:56:23;;;;;;;11.25;6.75;;;15.80;99.90;;;;;;4823860;29;20505;-55
2022/07/28 00:58:49;;;;;;;10.10;7.65;;;15.80;99.90;;;;;;4840780;29;20026;-55
2022/07/28 01:01:18;;;;;;;12.60;7.20;;;15.70;99.90;;;;;;4834745;29;20037;-58
2022/07/28 01:03:56;;;;;;;9.60;7.65;;;15.70;99.90;;;;;;4822629;29;20040;-53
2022/07/28 01:07:01;;;;;;;9.07;7.65;;;15.70;99.90;;;;;;4822807;29;20069;-56
2022/07/28 01:09:37;;;;;;;17.02;8.68;;;15.60;99.90;;;;;;4830138;29;20430;-54
2022/07/28 01:12:21;;;;;;;11.43;7.88;;;15.60;99.90;;;;;;4839950;29;20038;-58
2022/07/28 01:14:48;;;;;;;13.15;7.90;;;15.50;99.90;;;;;;4840417;29;20406;-58
2022/07/28 01:17:28;;;;;;;14.15;8.32;;;15.50;99.90;;;;;;4828665;29;20495;-58
2022/07/28 01:20:14;;;;;;;11.93;8.25;;;15.40;99.90;;;;;;4823736;29;20041;-56
2022/07/28 01:22:52;;;;;;;11.05;7.93;;;15.40;99.90;;;;;;4821212;29;20475;-54
2022/07/28 01:25:35;;;;;;;10.93;7.63;;;15.40;99.90;;;;;;4822433;29;20046;-56
2022/07/28 01:28:36;;;;;;;11.87;7.60;;;15.40;99.90;;;;;;4835848;29;20034;-58
2022/07/28 01:31:06;;;;;;;17.92;8.77;;;15.30;99.90;;;;;;4840445;29;20270;-60
2022/07/28 01:33:41;;;;;;;10.88;8.93;;;15.30;99.90;;;;;;4836997;29;20038;-59
2022/07/28 01:36:13;;;;;;;8.98;7.65;;;15.30;99.90;;;;;;4822212;29;20030;-55
2022/07/28 01:38:40;;;;;;;13.40;9.00;;;15.30;99.90;;;;;;4822339;29;20026;-58
2022/07/28 01:41:10;;;;;;;14.98;8.27;;;15.30;99.90;;;;;;4825781;29;20055;-57
2022/07/28 01:43:40;;;;;;;13.77;8.70;;;15.40;99.90;;;;;;4839132;29;20038;-57
2022/07/28 01:46:06;;;;;;;10.50;7.78;;;15.40;99.90;;;;;;4840037;29;20022;-56
2022/07/28 01:48:34;;;;;;;16.58;8.35;;;15.40;99.90;;;;;;4840757;29;20065;-55
2022/07/28 01:51:03;;;;;;;10.55;8.68;;;15.50;99.90;;;;;;4823273;29;20041;-55
2022/07/28 01:53:31;;;;;;;9.60;7.80;;;15.50;99.90;;;;;;4822111;29;20376;-58
2022/07/28 01:55:58;;;;;;;11.32;8.35;;;15.50;99.90;;;;;;4822891;29;20372;-57
2022/07/28 01:58:25;;;;;;;18.65;7.93;;;15.50;99.90;;;;;;4837654;29;20034;-55
2022/07/28 02:00:52;;;;;;;13.93;8.10;;;15.50;99.90;;;;;;4839884;29;20129;-57
2022/07/28 02:03:20;;;;;;;12.13;8.38;;;15.40;99.90;;;;;;4840036;29;20060;-56
2022/07/28 02:05:50;;;;;;;11.63;8.57;;;15.40;99.90;;;;;;4824202;29;20056;-54
2022/07/28 02:08:19;;;;;;;22.35;8.90;;;15.40;99.90;;;;;;4821902;29;20065;-57
2022/07/28 02:11:38;;;;;;;12.95;9.55;;;15.30;99.90;;;;;;4821997;29;20038;-56
2022/07/28 02:13:34;;;;;;;10.05;8.77;;;15.30;99.90;;;;;;4821789;29;20042;-59
2022/07/28 02:16:03;;;;;;;15.13;8.55;;;15.30;99.90;;;;;;4821701;29;20061;-59
2022/07/28 02:18:31;;;;;;;13.13;9.45;;;15.30;99.90;;;;;;4822830;29;20061;-55
2022/07/28 02:20:58;;;;;;;12.30;9.18;;;15.30;99.90;;;;;;4839483;29;20033;-53
2022/07/28 02:23:26;;;;;;;13.85;9.77;;;15.30;99.90;;;;;;4827813;29;20022;-59
2022/07/28 02:25:53;;;;;;;18.17;9.88;;;15.40;99.90;;;;;;4825753;29;20113;-59
2022/07/28 02:28:20;;;;;;;13.98;8.85;;;15.40;99.90;;;;;;4823273;29;20062;-58
2022/07/28 02:30:53;;;;;;;17.38;9.07;;;15.40;99.90;;;;;;4834252;29;20042;-57
2022/07/28 02:33:24;;;;;;;13.05;8.77;;;15.50;99.90;;;;;;4839441;29;20417;-58
2022/07/28 02:35:55;;;;;;;18.35;9.13;;;15.50;99.90;;;;;;4826168;29;20419;-58
2022/07/28 02:38:30;;;;;;;22.92;8.98;;;15.50;99.90;;;;;;4836999;29;20034;-52
2022/07/28 02:40:59;;;;;;;14.93;9.88;;;15.50;99.90;;;;;;4839844;29;20053;-57
2022/07/28 02:43:30;;;;;;;11.68;9.05;;;15.50;99.90;;;;;;4821631;29;20671;-56
2022/07/28 02:45:59;;;;;;;10.70;8.88;;;15.50;99.90;;;;;;4821402;29;20026;-59
2022/07/28 02:48:28;;;;;;;9.85;8.20;;;15.50;99.90;;;;;;4831407;29;20428;-57
2022/07/28 02:50:56;;;;;;;10.45;8.43;;;15.50;99.90;;;;;;4837274;29;20340;-58
2022/07/28 02:53:23;;;;;;;12.38;8.23;;;15.50;99.90;;;;;;4838976;29;20436;-56
2022/07/28 02:55:51;;;;;;;11.85;8.75;;;15.40;99.90;;;;;;4837531;29;20034;-58
2022/07/28 02:58:20;;;;;;;16.33;8.00;;;15.40;99.90;;;;;;4824466;29;20027;-57
2022/07/28 03:00:50;;;;;;;15.45;8.77;;;15.30;99.90;;;;;;4821357;29;20064;-56
2022/07/28 03:03:17;;;;;;;16.73;8.80;;;15.30;99.90;;;;;;4821139;29;20039;-55
2022/07/28 03:05:43;;;;;;;13.52;8.68;;;15.20;99.90;;;;;;4821292;29;20437;-57
2022/07/28 03:08:10;;;;;;;14.05;8.80;;;15.20;99.90;;;;;;4821099;29;20065;-56
2022/07/28 03:10:35;;;;;;;15.10;8.48;;;15.10;99.90;;;;;;4836046;29;20045;-56
2022/07/28 03:13:05;;;;;;;12.82;9.43;;;15.10;99.90;;;;;;4839281;29;20040;-54
2022/07/28 03:15:32;;;;;;;12.63;8.40;;;15.10;99.90;;;;;;4837730;29;20038;-58
2022/07/28 03:17:59;;;;;;;12.77;8.43;;;15.10;99.90;;;;;;4822803;29;20063;-56
2022/07/28 03:20:25;;;;;;;11.98;7.75;;;15.00;99.90;;;;;;4822156;29;20038;-58
2022/07/28 03:22:51;;;;;;;10.65;8.55;;;15.00;99.90;;;;;;4821025;29;20038;-58
2022/07/28 03:25:22;;;;;;;14.25;8.30;;;15.00;99.90;;;;;;4821274;29;20059;-57
2022/07/28 03:27:49;;;;;;;13.13;8.82;;;15.00;99.90;;;;;;4831398;29;20026;-55
2022/07/28 03:30:19;;;;;;;17.83;8.15;;;15.00;99.90;;;;;;4838988;29;20033;-56
2022/07/28 03:32:51;;;;;;;18.70;8.63;;;14.90;99.90;;;;;;4839273;29;20440;-57
2022/07/28 03:35:17;;;;;;;14.00;7.13;;;14.90;99.90;;;;;;4840743;29;20122;-58
2022/07/28 03:37:57;;;;;;;12.07;8.35;;;14.90;99.90;;;;;;4842770;29;20034;-57
2022/07/28 03:40:28;;;;;;;9.32;7.45;;;14.90;99.90;;;;;;4842330;29;20431;-54
2022/07/28 03:42:55;;;;;;;13.70;8.73;;;14.90;99.90;;;;;;4832898;29;20034;-54
2022/07/28 03:45:22;;;;;;;21.55;7.75;;;14.90;99.90;;;;;;4842201;29;20397;-53
2022/07/28 03:47:52;;;;;;;15.98;7.20;;;14.90;99.90;;;;;;4842474;29;20405;-58
2022/07/28 03:50:24;;;;;;;19.10;7.55;;;14.90;99.90;;;;;;4840994;29;20133;-58
2022/07/28 03:52:51;;;;;;;10.17;7.40;;;14.90;99.90;;;;;;4842020;29;20034;-53
2022/07/28 03:55:17;;;;;;;11.75;7.68;;;14.90;99.90;;;;;;4842138;29;20068;-53
2022/07/28 03:57:43;;;;;;;12.93;6.43;;;14.90;99.90;;;;;;4830227;29;20018;-57
2022/07/28 04:00:10;;;;;;;9.95;6.10;;;14.90;99.90;;;;;;4823927;29;20034;-57
2022/07/28 04:02:36;;;;;;;13.65;7.50;;;15.00;99.90;;;;;;4823711;29;20117;-53
2022/07/28 04:05:02;;;;;;;10.13;7.18;;;15.00;99.90;;;;;;4830771;29;20042;-56
2022/07/28 04:07:27;;;;;;;11.65;6.43;;;15.10;99.90;;;;;;4842015;29;20034;-58
2022/07/28 04:09:53;;;;;;;16.55;7.50;;;15.10;99.90;;;;;;4841488;29;20611;-58
2022/07/28 04:12:19;;;;;;;11.05;6.82;;;15.20;99.90;;;;;;4832214;29;20028;-56
2022/07/28 04:14:44;;;;;;;9.48;7.72;;;15.20;99.90;;;;;;4823780;29;20037;-57
2022/07/28 04:17:10;;;;;;;18.75;7.68;;;15.30;99.90;;;;;;4828595;29;20142;-58
2022/07/28 04:19:36;;;;;;;11.88;7.10;;;15.30;99.90;;;;;;4840446;29;20034;-53
2022/07/28 04:22:01;;;;;;;13.32;7.07;;;15.30;99.90;;;;;;4840893;29;20448;-57
2022/07/28 04:24:27;;;;;;;10.00;6.57;;;15.30;99.90;;;;;;4839411;29;20030;-54
2022/07/28 04:26:53;;;;;;;10.70;6.60;;;15.30;99.90;;;;;;4824179;29;20097;-55
2022/07/28 04:29:18;;;;;;;14.40;7.85;;;15.30;99.90;;;;;;4839283;29;20386;-56
2022/07/28 04:31:44;;;;;;;15.70;6.85;;;15.40;99.90;;;;;;4841475;29;20061;-57
2022/07/28 04:34:10;;;;;;;13.65;7.35;;;15.40;99.90;;;;;;4840522;29;20194;-55
2022/07/28 04:36:42;;;;;;;12.15;6.72;;;15.50;99.90;;;;;;4823415;29;20030;-58
2022/07/28 04:39:10;;;;;;;12.00;6.53;;;15.60;99.90;;;;;;4823147;29;20026;-55
2022/07/28 04:41:37;;;;;;;13.77;6.63;;;15.60;99.90;;;;;;4826841;29;20053;-59
2022/07/28 04:44:03;;;;;;;12.88;6.75;;;15.70;99.90;;;;;;4833991;29;20076;-57
2022/07/28 04:46:29;;;;;;;17.77;6.18;;;15.80;99.90;;;;;;4822319;29;20487;-57
2022/07/28 04:48:54;;;;;;;10.63;6.68;;;15.90;99.90;;;;;;4823028;29;20122;-56
2022/07/28 04:51:21;;;;;;;20.80;6.78;;;16.00;99.90;;;;;;4824255;29;20105;-56
2022/07/28 04:53:47;;;;;;;10.82;5.68;;;16.10;99.90;;;;;;4827966;29;20057;-57
2022/07/28 04:56:13;;;;;;;10.80;6.32;;;16.00;99.90;;;;;;4839216;29;20495;-55
2022/07/28 04:58:39;;;;;;;10.85;6.22;;;16.00;99.90;;;;;;4824377;29;20035;-55
2022/07/28 05:01:04;;;;;;;14.40;6.13;;;16.10;99.90;;;;;;4822683;29;20037;-57
2022/07/28 05:03:30;;;;;;;10.50;6.03;;;16.20;99.90;;;;;;4822919;29;20045;-56
2022/07/28 05:05:56;;;;;;;10.90;6.22;;;16.20;99.90;;;;;;4822653;29;20030;-56
2022/07/28 05:08:22;;;;;;;12.55;6.30;;;16.30;99.90;;;;;;4821289;29;20030;-55
2022/07/28 05:10:55;;;;;;;17.58;5.93;;;16.30;99.90;;;;;;4835481;29;20426;-56
2022/07/28 05:13:20;;;;;;;9.10;6.10;;;16.40;99.90;;;;;;4840824;29;20046;-57
2022/07/28 05:15:46;;;;;;;6.60;5.07;;;16.50;99.90;;;;;;4826846;29;20026;-58
2022/07/28 05:18:12;;;;;;;7.03;5.28;;;16.50;99.90;;;;;;4823509;29;20023;-57
2022/07/28 05:20:37;;;;;;;8.23;5.45;;;16.40;99.90;;;;;;4838253;29;20432;-56
2022/07/28 05:23:03;;;;;;;10.45;5.90;;;16.50;99.90;;;;;;4840735;29;20343;-55
2022/07/28 05:25:31;;;;;;;11.45;5.95;;;16.50;99.90;;;;;;4841058;29;20030;-56
2022/07/28 05:27:57;;;;;;;11.43;5.57;;;16.60;99.90;;;;;;4829240;29;20030;-55
2022/07/28 05:30:23;;;;;;;8.10;5.70;;;16.80;99.90;;;;;;4822558;29;20117;-57
2022/07/28 05:32:49;;;;;;;8.65;5.18;;;16.90;99.90;;;;;;4822278;29;20040;-56
2022/07/28 05:35:15;;;;;;;9.63;5.45;;;17.10;99.90;;;;;;4822286;29;20113;-54
2022/07/28 05:37:41;;;;;;;9.27;5.55;;;17.10;99.90;;;;;;4821917;29;20109;-58
2022/07/28 05:40:12;;;;;;;9.70;5.40;;;17.10;99.90;;;;;;4840468;29;20555;-58
2022/07/28 05:42:39;;;;;;;5.80;4.88;;;17.00;99.90;;;;;;4841023;29;20120;-56
2022/07/28 05:45:07;;;;;;;9.18;4.95;;;17.10;99.90;;;;;;4840632;29;20584;-54
2022/07/28 05:47:56;;;;;;;9.95;5.50;;;17.10;99.90;;;;;;4828323;29;20034;-52
2022/07/28 05:50:23;;;;;;;12.90;4.95;;;17.20;99.90;;;;;;4825284;29;20430;-54
2022/07/28 05:52:50;;;;;;;5.07;4.32;;;17.10;99.90;;;;;;4821687;29;20026;-51
2022/07/28 05:55:16;;;;;;;10.88;5.30;;;17.10;99.90;;;;;;4821951;29;20034;-57
2022/07/28 05:57:43;;;;;;;13.50;5.88;;;17.20;99.90;;;;;;4831435;29;20058;-58
2022/07/28 06:00:14;;;;;;;11.35;4.78;;;17.10;99.90;;;;;;4832936;29;20042;-57
2022/07/28 06:02:40;;;;;;;11.52;4.88;;;17.10;99.90;;;;;;4821933;29;20448;-59
2022/07/28 06:05:07;;;;;;;15.05;6.03;;;17.10;99.90;;;;;;4830247;29;20360;-55
2022/07/28 06:07:33;;;;;;;8.57;5.53;;;17.20;99.90;;;;;;4839408;29;20034;-56
2022/07/28 06:09:58;;;;;;;8.38;5.00;;;17.40;99.90;;;;;;4825990;29;20110;-56
2022/07/28 06:12:24;;;;;;;11.15;5.78;;;17.40;99.90;;;;;;4821467;29;20034;-53
2022/07/28 06:14:50;;;;;;;23.48;6.10;;;17.60;99.90;;;;;;4821079;29;20505;-59
2022/07/28 06:17:16;;;;;;;7.18;4.55;;;17.70;99.90;;;;;;4833341;29;20108;-56
2022/07/28 06:19:42;;;;;;;10.52;5.00;;;17.80;99.90;;;;;;4836707;29;20038;-57
2022/07/28 06:22:08;;;;;;;13.43;5.38;;;17.60;99.90;;;;;;4839682;29;20482;-55
2022/07/28 06:24:34;;;;;;;18.05;4.93;;;17.80;99.90;;;;;;4834936;29;20066;-54
2022/07/28 06:27:01;;;;;;;11.02;5.07;;;17.80;99.90;;;;;;4821493;29;20034;-55
2022/07/28 06:29:30;;;;;;;23.27;5.25;;;17.90;99.90;;;;;;4825156;29;20030;-53
2022/07/28 06:31:56;;;;;;;9.52;5.40;;;18.10;99.90;;;;;;4841350;29;20037;-53
2022/07/28 06:34:21;;;;;;;8.48;5.32;;;18.20;99.90;;;;;;4834289;29;20042;-55
2022/07/28 06:36:47;;;;;;;7.63;5.22;;;18.20;99.90;;;;;;4821220;29;20066;-58
2022/07/28 06:39:13;;;;;;;8.55;4.00;;;18.30;99.90;;;;;;4821298;29;20548;-56
2022/07/28 06:41:42;;;;;;;10.65;5.22;;;18.40;99.90;;;;;;4821616;29;20053;-57
2022/07/28 06:44:10;;;;;;;13.50;4.88;;;18.40;99.90;;;;;;4821627;29;20444;-56
2022/07/28 06:46:36;;;;;;;12.23;5.65;;;18.40;99.90;;;;;;4821464;29;20087;-54
2022/07/28 06:49:03;;;;;;;10.50;5.20;;;18.50;99.90;;;;;;4821321;29;20479;-56
2022/07/28 06:51:28;;;;;;;16.63;5.20;;;18.60;99.90;;;;;;4822585;29;20546;-54
2022/07/28 06:53:54;;;;;;;7.13;4.60;;;18.40;99.90;;;;;;4831005;29;20046;-53
2022/07/28 06:56:21;;;;;;;9.13;5.07;;;18.50;99.90;;;;;;4832438;29;20069;-56
2022/07/28 06:58:46;;;;;;;7.38;5.18;;;18.40;99.90;;;;;;4821212;29;20026;-56
2022/07/28 07:01:13;;;;;;;9.52;6.45;;;18.30;99.90;;;;;;4821903;29;20083;-57
2022/07/28 07:03:39;;;;;;;11.23;5.70;;;18.30;99.90;;;;;;4821258;29;20387;-57
2022/07/28 07:06:05;;;;;;;10.93;5.10;;;18.30;99.90;;;;;;4821996;29;20044;-56
2022/07/28 07:08:31;;;;;;;9.95;5.93;;;18.30;99.90;;;;;;4822457;29;20043;-57
2022/07/28 07:10:57;;;;;;;12.00;5.72;;;18.00;99.90;;;;;;4824531;29;20079;-56
2022/07/28 07:13:23;;;;;;;7.40;5.70;;;18.10;99.90;;;;;;4826299;29;20026;-57
2022/07/28 07:15:49;;;;;;;8.18;5.50;;;18.30;99.90;;;;;;4833264;29;20454;-58
2022/07/28 07:18:15;;;;;;;9.23;5.85;;;18.40;99.90;;;;;;4843560;29;20061;-58
2022/07/28 07:20:40;;;;;;;13.13;5.78;;;18.70;99.90;;;;;;4828267;29;20035;-58
2022/07/28 07:23:06;;;;;;;8.20;5.20;;;18.90;99.90;;;;;;4825821;29;20481;-56
2022/07/28 07:25:32;;;;;;;11.35;5.65;;;19.00;99.90;;;;;;4833340;29;20064;-59
2022/07/28 07:27:58;;;;;;;8.48;5.57;;;19.30;99.90;;;;;;4844377;29;20094;-57
2022/07/28 07:30:23;;;;;;;11.13;5.40;;;19.30;99.90;;;;;;4831598;29;20599;-56
2022/07/28 07:32:49;;;;;;;13.45;6.78;;;19.30;99.90;;;;;;4825459;29;20038;-57
2022/07/28 07:35:15;;;;;;;8.35;5.13;;;19.40;99.90;;;;;;4825873;29;20434;-57
2022/07/28 07:37:40;;;;;;;13.43;5.78;;;19.50;99.90;;;;;;4825477;29;20045;-59
2022/07/28 07:40:08;;;;;;;15.05;5.75;;;19.70;99.90;;;;;;4825290;29;20105;-59
2022/07/28 07:42:33;;;;;;;10.48;5.35;;;19.60;99.90;;;;;;4825773;29;20057;-58
2022/07/28 07:44:59;;;;;;;9.40;5.60;;;19.60;99.90;;;;;;4825048;29;20070;-59
2022/07/28 07:47:25;;;;;;;14.30;5.80;;;19.60;99.90;;;;;;4825151;29;20035;-57
2022/07/28 07:49:56;;;;;;;7.93;5.88;;;19.80;99.90;;;;;;4841107;29;20026;-56
2022/07/28 07:52:22;;;;;;;12.07;7.07;;;19.90;99.90;;;;;;4841874;29;20423;-57
2022/07/28 07:54:47;;;;;;;10.20;5.75;;;20.00;99.90;;;;;;4840149;29;20034;-58
2022/07/28 07:57:13;;;;;;;9.75;5.93;;;20.00;99.90;;;;;;4842567;29;20466;-58
2022/07/28 07:59:39;;;;;;;11.18;6.25;;;20.40;99.90;;;;;;4841364;29;20567;-56
2022/07/28 08:02:05;;;;;;;9.18;5.97;;;20.10;99.90;;;;;;4841679;29;20066;-57
2022/07/28 08:04:30;;;;;;;14.25;7.35;;;19.90;99.90;;;;;;4842063;29;20109;-56
2022/07/28 08:06:56;;;;;;;12.05;6.25;;;19.80;99.90;;;;;;4840980;29;20125;-58
2022/07/28 08:09:43;;;;;;;12.80;6.13;;;19.90;99.90;;;;;;4842043;29;20046;-57
2022/07/28 08:12:40;;;;;;;12.02;6.75;;;19.90;99.90;;;;;;4823524;29;20030;-60
2022/07/28 08:15:07;;;;;;;11.32;7.18;;;19.90;99.90;;;;;;4821937;29;20042;-57
2022/07/28 08:17:32;;;;;;;15.73;6.55;;;20.20;99.90;;;;;;4826607;29;20034;-57
2022/07/28 08:19:58;;;;;;;11.07;5.85;;;20.50;99.90;;;;;;4840256;29;20491;-56
2022/07/28 08:22:24;;;;;;;12.43;6.78;;;20.50;99.90;;;;;;4840214;29;20253;-56
2022/07/28 08:24:50;;;;;;;16.17;6.88;;;20.60;99.90;;;;;;4841207;29;20487;-56
2022/07/28 08:27:16;;;;;;;17.35;6.03;;;20.60;99.90;;;;;;4839648;29;20126;-58
2022/07/28 08:29:42;;;;;;;9.48;5.85;;;20.60;99.90;;;;;;4841595;29;20034;-58
2022/07/28 08:32:07;;;;;;;16.05;6.72;;;20.70;99.90;;;;;;4841592;29;20453;-59
2022/07/28 08:34:34;;;;;;;11.95;6.25;;;20.70;99.90;;;;;;4841665;29;20040;-56
2022/07/28 08:37:01;;;;;;;19.40;6.35;;;21.00;99.90;;;;;;4841362;29;20040;-54
2022/07/28 08:39:27;;;;;;;14.35;6.40;;;21.10;99.90;;;;;;4841580;29;20033;-58
2022/07/28 08:42:15;;;;;;;8.55;6.03;;;21.40;99.90;;;;;;4841706;29;20033;-55
2022/07/28 08:45:03;;;;;;;8.10;5.57;;;21.50;99.90;;;;;;4841572;29;20026;-57
2022/07/28 08:47:33;;;;;;;7.13;5.82;;;21.80;99.90;;;;;;4839127;29;20425;-58
2022/07/28 08:49:59;;;;;;;8.27;5.70;;;22.00;99.90;;;;;;4824953;29;20394;-57
2022/07/28 08:52:30;;;;;;;7.55;4.82;;;21.80;99.90;;;;;;4888058;24;20086;-82
2022/07/28 08:54:57;;;;;;;14.55;6.40;;;21.70;99.90;;;;;;4854612;29;20037;-83
2022/07/28 08:57:31;;;;;;;9.27;5.55;;;21.70;99.90;;;;;;4839699;29;20037;-82
2022/07/28 08:59:57;;;;;;;14.18;5.93;;;21.70;99.90;;;;;;4840253;29;20030;-81
2022/07/28 09:02:27;;;;;;;5.57;5.05;;;21.60;99.90;;;;;;4840639;29;20030;-81
2022/07/28 09:04:58;;;;;;;14.32;4.85;;;21.80;99.90;;;;;;4840061;29;20034;-82
2022/07/28 09:07:25;;;;;;;11.07;4.70;;;22.00;99.90;;;;;;4840508;29;20060;-84
2022/07/28 09:09:52;;;;;;;15.13;5.70;;;21.90;99.90;;;;;;4837126;29;20090;-81
2022/07/28 09:12:18;;;;;;;8.23;5.57;;;22.10;99.90;;;;;;4846920;29;20558;-82
2022/07/28 09:14:44;;;;;;;11.73;5.95;;;22.30;99.90;;;;;;4838796;29;20041;-84
2022/07/28 09:17:10;;;;;;;11.65;5.85;;;22.30;99.90;;;;;;4833663;29;20414;-83
2022/07/28 09:19:38;;;;;;;9.77;5.13;;;22.40;99.90;;;;;;4840240;29;20041;-82
2022/07/28 09:22:05;;;;;;;10.45;5.95;;;22.50;99.90;;;;;;4838671;29;20447;-81
2022/07/28 09:24:40;;;;;;;13.90;6.35;;;22.60;99.90;;;;;;4839229;29;20061;-82
2022/07/28 09:27:09;;;;;;;12.93;5.85;;;22.60;99.90;;;;;;4846668;29;20026;-84
2022/07/28 09:29:37;;;;;;;5.75;5.20;;;22.90;99.90;;;;;;4841049;29;20046;-83
2022/07/28 09:32:04;;;;;;;11.50;5.30;;;23.10;99.90;;;;;;4840305;29;20070;-82
2022/07/28 09:34:40;;;;;;;9.20;5.78;;;23.30;99.90;;;;;;4843369;29;20102;-83
2022/07/28 09:37:17;;;;;;;12.43;5.88;;;23.50;99.60;;;;;;4843169;29;20121;-82
2022/07/28 09:39:44;;;;;;;12.90;5.40;;;23.30;99.30;;;;;;4842008;29;20513;-83
2022/07/28 09:42:10;;;;;;;10.95;5.40;;;23.60;99.90;;;;;;4854564;29;20033;-83
2022/07/28 09:44:35;;;;;;;10.00;5.45;;;23.70;99.80;;;;;;4860375;29;20096;-82
2022/07/28 09:47:19;;;;;;;10.75;4.72;;;23.80;98.20;;;;;;4840874;29;20034;-83
2022/07/28 09:49:45;;;;;;;14.43;4.65;;;23.80;99.00;;;;;;4839574;29;20482;-84
2022/07/28 09:52:11;;;;;;;13.27;5.78;;;23.80;98.90;;;;;;4856266;29;20056;-83
2022/07/28 09:54:36;;;;;;;11.52;4.95;;;23.90;98.30;;;;;;4859156;29;20595;-83
2022/07/28 09:57:02;;;;;;;21.08;5.15;;;24.20;99.10;;;;;;4836479;29;20033;-84
2022/07/28 09:59:48;;;;;;;11.10;5.30;;;24.50;99.70;;;;;;4836173;29;20072;-84
2022/07/28 10:02:23;;;;;;;8.90;5.10;;;24.20;98.60;;;;;;4840617;29;20042;-82
2022/07/28 10:04:51;;;;;;;10.85;4.38;;;24.40;99.40;;;;;;4843250;29;20029;-84
2022/07/28 10:07:17;;;;;;;6.78;4.05;;;24.50;98.70;;;;;;4849604;29;20104;-82
2022/07/28 10:09:54;;;;;;;6.28;4.65;;;24.70;97.50;;;;;;4844378;29;20030;-83
2022/07/28 10:12:23;;;;;;;17.50;4.88;;;24.70;97.30;;;;;;4847670;29;20037;-83
2022/07/28 10:14:50;;;;;;;13.27;4.93;;;24.70;97.70;;;;;;4839884;29;20117;-81
2022/07/28 10:17:23;;;;;;;8.07;4.72;;;24.60;97.20;;;;;;4840700;29;20034;-79
2022/07/28 10:19:50;;;;;;;9.85;4.15;;;25.00;97.90;;;;;;4841699;29;20030;-82
2022/07/28 10:22:18;;;;;;;14.52;4.88;;;24.90;96.60;;;;;;4840364;29;20037;-81
2022/07/28 10:24:46;;;;;;;8.30;3.83;;;24.80;96.70;;;;;;4840026;29;20410;-83
2022/07/28 10:27:13;;;;;;;6.70;3.95;;;24.70;96.90;;;;;;4840679;29;20112;-84
2022/07/28 10:29:43;;;;;;;11.75;4.30;;;24.90;98.20;;;;;;4839315;29;20094;-85
2022/07/28 10:32:08;;;;;;;14.93;4.43;;;25.30;97.70;;;;;;4839505;29;20098;-84
2022/07/28 10:34:47;;;;;;;8.57;4.03;;;25.60;98.20;;;;;;4839777;29;20026;-82
2022/07/28 10:37:19;;;;;;;7.22;4.38;;;25.30;94.70;;;;;;4839455;29;20026;-82
2022/07/28 10:40:00;;;;;;;7.50;4.10;;;25.40;95.90;;;;;;4840639;29;20499;-84
2022/07/28 10:42:27;;;;;;;13.82;5.05;;;25.50;94.80;;;;;;4856369;29;20490;-83
2022/07/28 10:44:54;;;;;;;7.80;3.70;;;25.50;95.60;;;;;;4859626;29;20065;-82
2022/07/28 10:47:22;;;;;;;5.97;3.85;;;25.70;95.50;;;;;;4862275;29;20489;-84
2022/07/28 10:49:48;;;;;;;5.22;3.40;;;25.50;95.50;;;;;;4862187;29;20074;-84
2022/07/28 10:52:16;;;;;;;9.15;3.72;;;25.80;95.70;;;;;;4860380;29;20060;-82
2022/07/28 10:55:06;;;;;;;10.38;4.18;;;26.00;94.20;;;;;;4859490;29;20033;-81
2022/07/28 10:57:33;;;;;;;7.35;4.07;;;26.00;94.40;;;;;;4859383;29;20430;-80
2022/07/28 11:00:12;;;;;;;15.68;4.70;;;25.80;94.20;;;;;;4861166;29;20061;-84
2022/07/28 11:02:57;;;;;;;9.63;4.07;;;26.20;94.10;;;;;;4861437;29;20045;-84
2022/07/28 11:05:40;;;;;;;18.05;4.65;;;26.40;95.70;;;;;;4861483;29;20022;-80
2022/07/28 11:08:06;;;;;;;7.80;3.70;;;26.50;94.10;;;;;;4860550;29;20030;-83
2022/07/28 11:10:44;;;;;;;8.20;3.50;;;26.70;93.80;;;;;;4854292;29;20303;-81
2022/07/28 11:13:22;;;;;;;7.95;3.63;;;26.80;94.40;;;;;;4843500;29;20061;-83
2022/07/28 11:15:48;;;;;;;8.82;3.45;;;26.90;94.00;;;;;;4844231;29;20034;-81
2022/07/28 11:18:13;;;;;;;11.48;3.20;;;27.10;94.10;;;;;;4841898;29;20558;-81
2022/07/28 11:20:51;;;;;;;5.70;3.50;;;27.30;94.40;;;;;;4843082;29;20014;-83
2022/07/28 11:23:42;;;;;;;9.55;3.10;;;27.50;92.90;;;;;;4843121;29;20026;-82
2022/07/28 11:26:19;;;;;;;5.78;3.30;;;27.60;93.10;;;;;;4842995;29;20050;-81
2022/07/28 11:29:04;;;;;;;12.55;3.28;;;27.50;92.30;;;;;;4844206;29;20026;-82
2022/07/28 11:31:45;;;;;;;5.63;3.17;;;27.40;91.90;;;;;;4861329;29;20034;-83
2022/07/28 11:34:18;;;;;;;4.45;3.42;;;27.50;92.40;;;;;;4861194;29;20065;-83
2022/07/28 11:36:56;;;;;;;5.97;3.13;;;27.60;91.80;;;;;;4860083;29;20030;-82
2022/07/28 11:39:27;;;;;;;9.52;3.33;;;27.60;91.80;;;;;;4861227;29;20410;-82
2022/07/28 11:41:53;;;;;;;5.72;2.75;;;27.80;93.20;;;;;;4859800;29;20022;-82
2022/07/28 11:44:29;;;;;;;9.32;3.22;;;28.00;91.20;;;;;;4853279;29;20037;-82
2022/07/28 11:47:14;;;;;;;8.40;3.13;;;28.20;91.40;;;;;;4842654;29;20105;-82
2022/07/28 11:49:41;;;;;;;14.27;3.40;;;28.60;92.00;;;;;;4844606;29;20033;-80
2022/07/28 11:52:15;;;;;;;5.25;2.58;;;28.80;91.00;;;;;;4847863;29;20109;-81
2022/07/28 11:54:41;;;;;;;4.30;3.03;;;28.80;92.10;;;;;;4844056;29;20057;-80
2022/07/28 11:57:08;;;;;;;8.57;2.90;;;28.70;90.60;;;;;;4840935;29;20056;-82
2022/07/28 11:59:48;;;;;;;7.68;2.58;;;28.80;90.60;;;;;;4861712;29;20025;-82
2022/07/28 12:02:16;;;;;;;5.85;2.60;;;28.90;90.70;;;;;;4871881;29;20022;-83
2022/07/28 12:04:42;;;;;;;6.22;2.33;;;29.10;90.70;;;;;;4872685;29;20033;-82
2022/07/28 12:07:10;;;;;;;13.85;3.10;;;29.70;89.00;;;;;;4870725;29;20026;-81
2022/07/28 12:09:37;;;;;;;5.13;2.78;;;30.20;87.70;;;;;;4867835;29;20018;-82
2022/07/28 12:12:05;;;;;;;9.10;3.00;;;30.60;86.60;;;;;;4846240;29;20379;-80
2022/07/28 12:14:37;;;;;;;15.20;3.17;;;30.60;85.50;;;;;;4838663;29;20098;-82
2022/07/28 12:17:04;;;;;;;9.40;2.60;;;31.10;83.70;;;;;;4840321;29;20026;-84
2022/07/28 12:19:30;;;;;;;5.65;2.63;;;32.00;84.80;;;;;;4835040;29;20118;-82
2022/07/28 12:21:56;;;;;;;6.25;2.55;;;32.80;80.90;;;;;;4834070;29;20042;-80
2022/07/28 12:24:33;;;;;;;10.90;2.75;;;32.90;80.20;;;;;;4834789;29;20554;-82
2022/07/28 12:26:59;;;;;;;11.38;2.80;;;32.80;77.70;;;;;;4837196;29;20026;-80
2022/07/28 12:29:30;;;;;;;4.05;2.42;;;33.70;79.00;;;;;;4836005;29;20025;-79
2022/07/28 12:32:08;;;;;;;7.72;2.17;;;33.50;75.70;;;;;;4840343;29;20472;-82
2022/07/28 12:34:34;;;;;;;4.43;2.40;;;34.30;71.70;;;;;;4833833;29;20065;-80
2022/07/28 12:37:02;;;;;;;6.00;2.47;;;34.80;70.60;;;;;;4835064;29;20041;-82
2022/07/28 12:39:31;;;;;;;5.65;2.38;;;34.70;69.20;;;;;;4839561;29;20094;-80
2022/07/28 12:42:08;;;;;;;13.20;3.15;;;34.60;68.50;;;;;;4835497;29;20056;-80
2022/07/28 12:44:41;;;;;;;5.93;2.60;;;34.30;66.40;;;;;;4837214;29;20446;-80
2022/07/28 12:47:10;;;;;;;6.55;2.65;;;32.80;66.60;;;;;;4837243;29;20037;-80
2022/07/28 12:49:37;;;;;;;8.15;2.90;;;33.10;68.40;;;;;;4841591;29;20028;-80